This is the latest recevied weather packets stored in our database for station/object KC2G. If no packets are shown the sender has not sent any weather packets the latest 10 day(s).
| Time | Temp. | Humidity | Pressure | Rain* | Wind** | Luminosity | Snow |
|---|---|---|---|---|---|---|---|
| 1777746112 | 15° C | 42% | 1010.3 hPa | 0 mm | 0.45 m/s, 352° | - | - |
| 1777745755 | 15° C | 42% | 1010.3 hPa | 0 mm | 0.45 m/s, 352° | - | - |
| 1777744891 | 15° C | 43% | 1010.3 hPa | 0 mm | 0.45 m/s, 163° | - | - |
| 1777744855 | 15° C | 43% | 1010.3 hPa | 0 mm | 0.45 m/s, 163° | - | - |
| 1777743955 | 14.44° C | 42% | 1010.4 hPa | 0 mm | 0.89 m/s, 53° | - | - |
| 1777743055 | 13.89° C | 49% | 1010.8 hPa | 0 mm | 0.45 m/s, 148° | - | - |
| 1777742154 | 13.89° C | 53% | 1011.1 hPa | 0 mm | 0.45 m/s, 266° | - | - |
| 1777741256 | 13.89° C | 50% | 1011.2 hPa | 0 mm | 0.45 m/s, 301° | - | - |
| 1777740354 | 13.33° C | 52% | 1011.5 hPa | 0 mm | 0.45 m/s, 183° | - | - |
| 1777739455 | 13.33° C | 52% | 1011.4 hPa | 0 mm | 0.45 m/s, 343° | - | - |
| 1777738555 | 13.33° C | 55% | 1011.6 hPa | 0 mm | 0.45 m/s, 283° | - | - |
| 1777737655 | 13.33° C | 54% | 1011.6 hPa | 0 mm | 0.45 m/s, 219° | - | - |
| 1777736755 | 13.33° C | 58% | 1011.7 hPa | 0 mm | 0.89 m/s, 250° | - | - |
| 1777735855 | 13.33° C | 60% | 1011.9 hPa | 0 mm | 0.45 m/s, 166° | - | - |
| 1777734955 | 12.22° C | 64% | 1011.9 hPa | 0 mm | 0.89 m/s, 353° | - | - |
| 1777734054 | 12.22° C | 65% | 1012 hPa | 0 mm | 0.45 m/s, 354° | - | - |
| 1777733154 | 12.22° C | 66% | 1012.1 hPa | 0 mm | 0.45 m/s, 319° | - | - |
| 1777732256 | 11.67° C | 73% | 1012.3 hPa | 0 mm | 0.45 m/s, 75° | - | - |
| 1777731355 | 11.67° C | 74% | 1012.3 hPa | 0 mm | 0.45 m/s, 81° | - | - |
| 1777730455 | 11.11° C | 79% | 1012.4 hPa | 0 mm | 0.45 m/s, 265° | - | - |
| 1777729555 | 11.11° C | 78% | 1012.4 hPa | 0 mm | 0.45 m/s, 240° | - | - |
| 1777728694 | 11.11° C | 77% | 1012.3 hPa | 0 mm | 0.45 m/s, 1° | - | - |
| 1777728655 | 11.11° C | 77% | 1012.3 hPa | 0 mm | 0.45 m/s, 1° | - | - |
| 1777727810 | 11.11° C | 80% | 1012.6 hPa | 0 mm | 0.45 m/s, 293° | - | - |
| 1777727755 | 11.11° C | 80% | 1012.6 hPa | 0 mm | 0.45 m/s, 293° | - | - |
* Rain latest hour (hover to see other rain measurements)
** Current wind speed in m/s (hover to see current wind gust speed)